Time;durP1;ratioP1;P1;durP2;ratioP2;P2;SDS_P1;SDS_P2;PMS_P1;PMS_P2;Temp;Humidity;BMP_temperature;BMP_pressure;BME280_temperature;BME280_humidity;BME280_pressure;Samples;Min_cycle;Max_cycle;Signal;HPM_P1;HPM_P2
2022/09/13 00:00:50;;;;;;;2.28;1.98;;;18.40;99.90;;;-144.05;52.82;125687.94;4921834;29;20082;-88
2022/09/13 00:03:18;;;;;;;3.22;2.60;;;18.50;99.90;;;-144.05;52.58;125687.94;4921778;29;20028;-88
2022/09/13 00:05:44;;;;;;;4.00;2.83;;;18.50;99.90;;;-144.05;52.73;125687.94;4921207;29;20142;-91
2022/09/13 00:08:11;;;;;;;4.20;2.15;;;18.40;99.90;;;-144.05;52.93;125687.94;4920580;29;20099;-90
2022/09/13 00:10:42;;;;;;;4.03;2.55;;;18.40;99.90;;;-144.05;53.03;125687.94;4923265;29;20055;-91
2022/09/13 00:13:11;;;;;;;6.22;2.60;;;18.30;99.90;;;-144.05;53.31;125687.94;4925539;29;20548;-88
2022/09/13 00:15:48;;;;;;;3.40;2.95;;;18.30;99.90;;;-144.05;53.52;125687.94;4928568;29;20038;-92
2022/09/13 00:18:16;;;;;;;4.63;2.80;;;18.30;99.90;;;-144.05;53.57;125687.94;4927484;29;20510;-87
2022/09/13 00:20:42;;;;;;;5.97;2.40;;;18.20;99.90;;;-144.05;53.46;125687.94;4926030;29;20032;-90
2022/09/13 00:23:08;;;;;;;3.88;2.40;;;18.20;99.90;;;-144.05;53.35;125687.94;4924678;29;20063;-87
2022/09/13 00:25:35;;;;;;;4.97;2.80;;;18.30;99.90;;;-144.05;53.26;125687.94;4921425;29;20032;-89
2022/09/13 00:28:02;;;;;;;3.58;2.30;;;18.30;99.90;;;-144.05;53.39;125687.94;4921573;29;20036;-88
2022/09/13 00:30:28;;;;;;;4.03;2.17;;;18.30;99.90;;;-144.05;53.32;125687.94;4922145;29;20024;-88
2022/09/13 00:32:54;;;;;;;3.83;2.53;;;18.30;99.90;;;-144.05;53.16;125687.94;4923740;29;20040;-86
2022/09/13 00:35:20;;;;;;;3.63;2.15;;;18.30;99.90;;;-144.05;53.05;125687.94;4922798;29;20044;-87
2022/09/13 00:37:46;;;;;;;4.15;2.10;;;18.30;99.90;;;-144.05;53.26;125687.94;4920190;29;20548;-91
2022/09/13 00:40:12;;;;;;;3.85;2.55;;;18.40;99.90;;;-144.05;53.50;125687.94;4920676;29;20394;-90
2022/09/13 00:42:38;;;;;;;3.53;2.08;;;18.40;99.90;;;-144.05;53.04;125687.94;4919511;29;20047;-88
2022/09/13 00:45:16;;;;;;;3.72;2.63;;;18.40;99.90;;;-144.05;53.13;125687.94;4919707;29;20119;-87
2022/09/13 00:47:58;;;;;;;3.70;2.83;;;18.40;99.90;;;-144.05;52.64;125687.94;4919514;29;20382;-90
2022/09/13 00:50:38;;;;;;;5.00;2.30;;;18.40;99.90;;;-144.05;52.92;125687.94;4919833;29;20036;-90
2022/09/13 00:53:21;;;;;;;4.63;2.35;;;18.50;99.90;;;-144.05;52.82;125687.94;4919638;29;20444;-89
2022/09/13 00:56:13;;;;;;;3.13;2.22;;;18.50;99.90;;;-144.05;52.84;125687.94;4920142;29;20032;-89
2022/09/13 00:59:04;;;;;;;2.47;2.25;;;18.50;99.90;;;-144.05;52.97;125687.94;4920129;29;20028;-88
2022/09/13 01:01:46;;;;;;;2.70;2.30;;;18.50;99.90;;;-144.05;53.08;125687.94;4919576;29;20036;-87
2022/09/13 01:04:14;;;;;;;3.05;2.40;;;18.50;99.90;;;-144.05;52.77;125687.94;4919852;29;20035;-89
2022/09/13 01:06:42;;;;;;;3.33;2.13;;;18.60;99.90;;;-144.05;52.89;125687.94;4920053;29;20047;-90
2022/09/13 01:09:12;;;;;;;2.67;2.30;;;18.50;99.90;;;-144.05;52.93;125687.94;4920278;29;20028;-91
2022/09/13 01:12:13;;;;;;;4.78;2.65;;;18.50;99.90;;;-144.05;52.93;125687.94;4920779;29;20059;-87
2022/09/13 01:14:42;;;;;;;3.67;2.17;;;18.50;99.90;;;-144.05;52.65;125687.94;4920766;29;20061;-88
2022/09/13 01:17:08;;;;;;;4.47;2.70;;;18.60;99.90;;;-144.05;52.90;125687.94;4920990;29;20062;-88
2022/09/13 01:19:36;;;;;;;6.50;2.47;;;18.50;99.90;;;-144.05;52.68;125687.94;4920678;29;20437;-90
2022/09/13 01:22:49;;;;;;;5.07;2.40;;;18.60;99.90;;;-144.05;52.70;125687.94;4921729;29;20046;-89
2022/09/13 01:26:26;;;;;;;5.35;2.40;;;18.60;99.90;;;-144.05;52.61;125687.94;4919515;29;20046;-87
2022/09/13 01:29:27;;;;;;;4.05;2.15;;;18.60;99.90;;;-144.05;52.69;125687.94;4918217;29;20028;-86
2022/09/13 01:32:43;;;;;;;3.92;2.38;;;18.60;99.90;;;-144.05;52.65;125687.94;4917772;29;20038;-85
2022/09/13 01:35:56;;;;;;;2.35;1.90;;;18.50;99.90;;;-144.05;52.63;125687.94;4918625;29;20511;-90
2022/09/13 01:39:01;;;;;;;8.00;2.10;;;18.60;99.90;;;-144.05;52.75;125687.94;4918394;29;20036;-88
2022/09/13 01:41:52;;;;;;;4.78;2.20;;;18.50;99.90;;;-144.05;52.93;125687.94;4918099;29;20489;-91
2022/09/13 01:45:02;;;;;;;2.20;2.00;;;18.50;99.90;;;-144.05;52.70;125687.94;4918204;29;20028;-90
2022/09/13 01:47:43;;;;;;;3.33;1.90;;;18.40;99.90;;;-144.05;52.88;125687.94;4918342;29;20047;-90
2022/09/13 01:50:47;;;;;;;4.63;2.25;;;18.40;99.90;;;-144.05;53.08;125687.94;4918244;29;20150;-87
2022/09/13 01:53:48;;;;;;;2.83;1.90;;;18.40;99.90;;;-144.05;52.95;125687.94;4918092;29;20088;-88
2022/09/13 01:56:32;;;;;;;2.00;1.75;;;18.40;99.90;;;-144.05;52.56;125687.94;4917750;29;20031;-91
2022/09/13 01:59:15;;;;;;;2.55;2.05;;;18.50;99.90;;;-144.05;52.58;125687.94;4918147;29;20032;-89
2022/09/13 02:02:34;;;;;;;3.88;1.90;;;18.50;99.90;;;-144.05;52.49;125687.94;4918202;29;20095;-90
2022/09/13 02:05:43;;;;;;;3.13;2.13;;;18.50;99.90;;;-144.05;52.39;125687.94;4917712;29;20103;-88
2022/09/13 02:08:24;;;;;;;4.00;2.33;;;18.50;99.90;;;-144.05;52.49;125687.94;4917315;29;20484;-87
2022/09/13 02:11:16;;;;;;;4.18;2.00;;;18.50;99.90;;;-144.05;52.66;125687.94;4917857;29;20440;-88
2022/09/13 02:14:02;;;;;;;3.72;2.17;;;18.50;99.90;;;-144.05;52.55;125687.94;4917967;29;20056;-87
2022/09/13 02:16:51;;;;;;;2.92;2.20;;;18.50;99.90;;;-144.05;52.73;125687.94;4917632;29;20552;-88
2022/09/13 02:19:37;;;;;;;2.60;2.33;;;18.50;99.90;;;-144.05;52.84;125687.94;4917741;29;20055;-88
2022/09/13 02:22:10;;;;;;;3.15;1.75;;;18.50;99.90;;;-144.05;52.87;125687.94;4918188;29;20032;-86
2022/09/13 02:24:47;;;;;;;5.82;2.22;;;18.40;99.90;;;-144.05;52.41;125687.94;4918082;29;20096;-87
2022/09/13 02:27:24;;;;;;;3.00;2.03;;;18.50;99.90;;;-144.05;52.84;125687.94;4919437;29;20032;-86
2022/09/13 02:30:06;;;;;;;4.15;2.28;;;18.50;99.90;;;-144.05;52.65;125687.94;4921788;29;20103;-92
2022/09/13 02:32:47;;;;;;;3.92;2.22;;;18.50;99.90;;;-144.05;52.41;125687.94;4917366;29;20040;-88
2022/09/13 02:35:39;;;;;;;3.00;2.00;;;18.50;99.90;;;-144.05;52.46;125687.94;4917799;29;20032;-87
2022/09/13 02:38:21;;;;;;;3.22;2.00;;;18.50;99.90;;;-144.05;52.75;125687.94;4922249;29;20028;-89
2022/09/13 02:41:15;;;;;;;2.42;1.60;;;18.50;99.90;;;-144.05;52.48;125687.94;4921827;29;20385;-88
2022/09/13 02:43:57;;;;;;;2.63;1.80;;;18.50;99.90;;;-144.05;52.33;125687.94;4921402;29;20448;-90
2022/09/13 02:47:15;;;;;;;3.67;2.00;;;18.50;99.90;;;-144.05;52.44;125687.94;4921435;29;20524;-89
2022/09/13 02:50:24;;;;;;;3.88;1.90;;;18.50;99.90;;;-144.05;52.51;125687.94;4921070;29;20123;-92
2022/09/13 02:53:31;;;;;;;5.35;2.13;;;18.50;99.90;;;-144.05;52.46;125687.94;4921531;29;20481;-89
2022/09/13 02:56:40;;;;;;;4.22;1.85;;;18.50;99.90;;;-144.05;52.56;125687.94;4922073;29;20047;-88
2022/09/13 02:59:18;;;;;;;4.03;1.75;;;18.50;99.90;;;-144.05;52.65;125687.94;4921070;29;20043;-89
2022/09/13 03:02:01;;;;;;;2.25;2.03;;;18.50;99.90;;;-144.05;52.71;125687.94;4922210;29;20028;-90
2022/09/13 03:04:28;;;;;;;2.45;1.92;;;18.50;99.90;;;-144.05;52.73;125687.94;4921477;29;20099;-88
2022/09/13 03:06:54;;;;;;;2.10;1.90;;;18.50;99.90;;;-144.05;52.75;125687.94;4921626;29;20058;-90
2022/09/13 03:09:21;;;;;;;4.15;2.08;;;18.50;99.90;;;-144.05;52.52;125687.94;4921951;29;20028;-87
2022/09/13 03:12:14;;;;;;;2.90;1.95;;;18.50;99.90;;;-144.05;52.53;125687.94;4921501;29;20028;-89
2022/09/13 03:15:39;;;;;;;3.80;1.98;;;18.50;99.90;;;-144.05;52.63;125687.94;4921526;29;20028;-90
2022/09/13 03:18:39;;;;;;;3.67;2.15;;;18.50;99.90;;;-144.05;52.54;125687.94;4920096;29;20044;-89
2022/09/13 03:21:54;;;;;;;2.90;1.75;;;18.50;99.90;;;-144.05;52.59;125687.94;4921673;29;20035;-90
2022/09/13 03:24:46;;;;;;;3.60;1.70;;;18.50;99.90;;;-144.05;52.71;125687.94;4922901;29;20032;-90
2022/09/13 03:27:28;;;;;;;1.77;1.55;;;18.60;99.90;;;-144.05;52.29;125687.94;4922571;29;20075;-91
2022/09/13 03:30:05;;;;;;;3.72;1.45;;;18.60;99.90;;;-144.05;52.30;125687.94;4922518;29;20032;-87
2022/09/13 03:32:55;;;;;;;2.83;1.55;;;18.60;99.90;;;-144.05;52.62;125687.94;4922642;29;20064;-91
2022/09/13 03:35:51;;;;;;;2.38;1.83;;;18.60;99.90;;;-144.05;52.48;125687.94;4924610;29;20091;-89
2022/09/13 03:38:44;;;;;;;2.42;1.92;;;18.60;99.90;;;-144.05;52.32;125687.94;4924784;29;20039;-88
2022/09/13 03:41:28;;;;;;;1.90;1.70;;;18.60;99.90;;;-144.05;52.57;125687.94;4920637;29;20033;-91
2022/09/13 03:44:07;;;;;;;3.88;2.08;;;18.60;99.90;;;-144.05;52.72;125687.94;4920774;29;20088;-88
2022/09/13 03:46:42;;;;;;;2.00;1.60;;;18.60;99.90;;;-144.05;52.55;125687.94;4905989;29;20453;-90
2022/09/13 03:49:17;;;;;;;4.18;1.90;;;18.60;99.90;;;-144.05;52.37;125687.94;4920642;29;20031;-87
2022/09/13 03:51:48;;;;;;;2.42;1.50;;;18.60;99.90;;;-144.05;52.79;125687.94;4921076;29;20079;-88
2022/09/13 03:54:27;;;;;;;3.75;1.60;;;18.70;99.90;;;-144.05;52.74;125687.94;4920852;29;20024;-90
2022/09/13 03:57:21;;;;;;;3.20;2.20;;;18.70;99.90;;;-144.05;52.99;125687.94;4920903;29;20066;-90
2022/09/13 03:59:56;;;;;;;3.90;2.20;;;18.70;99.90;;;-144.05;53.61;125687.94;4921274;29;20048;-88
2022/09/13 04:02:25;;;;;;;4.82;2.10;;;18.60;99.90;;;-144.05;53.95;125687.94;4921026;29;20036;-89
2022/09/13 04:04:51;;;;;;;2.50;1.92;;;18.50;99.90;;;-144.05;54.16;125687.94;4921013;29;20394;-88
2022/09/13 04:07:24;;;;;;;2.97;2.13;;;18.50;99.90;;;-144.05;54.23;125687.94;4920603;29;20032;-89
2022/09/13 04:09:50;;;;;;;3.45;1.70;;;18.50;99.90;;;-144.05;54.01;125687.94;4920724;29;20032;-90
2022/09/13 04:12:17;;;;;;;7.75;2.33;;;18.40;99.90;;;-144.05;54.37;125687.94;4920137;29;20028;-87
2022/09/13 04:14:44;;;;;;;4.43;2.00;;;18.40;99.90;;;-144.05;53.88;125687.94;4920516;29;20504;-86
2022/09/13 04:17:11;;;;;;;5.05;2.30;;;18.50;99.90;;;-144.05;53.98;125687.94;4921067;29;20039;-89
2022/09/13 04:19:38;;;;;;;2.85;1.90;;;18.50;99.90;;;-144.05;54.10;125687.94;4928497;29;20046;-89
2022/09/13 04:22:04;;;;;;;4.22;1.73;;;18.50;99.90;;;-144.05;54.19;125687.94;4934704;29;20036;-89
2022/09/13 04:24:30;;;;;;;6.05;1.90;;;18.50;99.90;;;-144.05;54.09;125687.94;4940455;29;20043;-89
2022/09/13 04:26:57;;;;;;;2.63;2.00;;;18.50;99.90;;;-144.05;54.46;125687.94;4925539;29;20028;-89
2022/09/13 04:29:25;;;;;;;3.92;1.95;;;18.50;99.90;;;-144.05;54.38;125687.94;4924561;29;20059;-88
2022/09/13 04:31:54;;;;;;;3.10;1.85;;;18.50;99.90;;;-144.05;54.26;125687.94;4926058;29;20032;-91
2022/09/13 04:34:21;;;;;;;4.35;1.80;;;18.50;99.90;;;-144.05;54.25;125687.94;4925999;29;20035;-88
2022/09/13 04:36:49;;;;;;;4.00;2.17;;;18.50;99.90;;;-144.05;54.42;125687.94;4925335;29;20384;-90
2022/09/13 04:39:15;;;;;;;3.85;1.92;;;18.50;99.90;;;-144.05;54.19;125687.94;4923547;29;20036;-87
2022/09/13 04:41:46;;;;;;;2.85;1.92;;;18.50;99.90;;;-144.05;54.59;125687.94;4923853;29;20408;-90
2022/09/13 04:44:15;;;;;;;2.92;1.83;;;18.50;99.90;;;-144.05;54.99;125687.94;4924607;29;20033;-87
2022/09/13 04:46:45;;;;;;;3.08;1.80;;;18.40;99.90;;;-144.05;54.69;125687.94;4929236;29;20043;-88
2022/09/13 04:49:11;;;;;;;2.42;1.95;;;18.40;99.90;;;-144.05;55.04;125687.94;4926844;29;20115;-89
2022/09/13 04:51:37;;;;;;;2.83;2.08;;;18.40;99.90;;;-144.05;55.47;125687.94;4926427;29;20096;-90
2022/09/13 04:54:04;;;;;;;1.95;1.63;;;18.40;99.90;;;-144.05;55.44;125687.94;4925375;29;20079;-89
2022/09/13 04:56:30;;;;;;;3.30;1.95;;;18.40;99.90;;;-144.05;55.75;125687.94;4929323;29;20163;-91
2022/09/13 04:58:56;;;;;;;6.25;1.98;;;18.30;99.90;;;-144.05;55.87;125687.94;4925207;29;20422;-85
2022/09/13 05:01:23;;;;;;;2.97;2.10;;;18.30;99.90;;;-144.05;55.90;125687.94;4927206;29;20106;-91
2022/09/13 05:03:52;;;;;;;3.97;2.22;;;18.30;99.90;;;-144.05;56.18;125687.94;4927067;29;20526;-89
2022/09/13 05:06:19;;;;;;;2.08;1.90;;;18.30;99.90;;;-144.05;55.91;125687.94;4929757;29;20047;-86
2022/09/13 05:08:54;;;;;;;2.88;1.92;;;18.30;99.90;;;-144.05;56.01;125687.94;4932278;29;20321;-90
2022/09/13 05:11:28;;;;;;;3.60;2.28;;;18.30;99.90;;;-144.05;56.46;125687.94;4934014;29;20028;-88
2022/09/13 05:14:00;;;;;;;4.47;2.33;;;18.30;99.90;;;-144.05;57.03;125687.94;4933529;29;20473;-87
2022/09/13 05:16:31;;;;;;;4.68;2.13;;;18.20;99.90;;;-144.05;56.62;125687.94;4932295;29;20051;-89
2022/09/13 05:18:58;;;;;;;3.95;2.20;;;18.20;99.90;;;-144.05;56.62;125687.94;4925439;29;20028;-90
2022/09/13 05:21:26;;;;;;;3.38;2.00;;;18.20;99.90;;;-144.05;56.80;125687.94;4925511;29;20123;-86
2022/09/13 05:23:55;;;;;;;4.97;2.10;;;18.20;99.90;;;-144.05;57.02;125687.94;4926039;29;20056;-87
2022/09/13 05:26:28;;;;;;;2.88;1.98;;;18.30;99.90;;;-144.05;57.24;125687.94;4926045;29;20047;-91
2022/09/13 05:28:54;;;;;;;3.55;2.58;;;18.30;99.90;;;-144.05;57.22;125687.94;4924391;29;20028;-88
2022/09/13 05:31:29;;;;;;;3.30;2.65;;;18.20;99.90;;;-144.05;57.09;125687.94;4924414;29;20060;-89
2022/09/13 05:34:09;;;;;;;4.88;2.58;;;18.20;99.90;;;-144.05;57.19;125687.94;4920864;29;20035;-87
2022/09/13 05:36:36;;;;;;;5.57;2.53;;;18.20;99.90;;;-144.05;57.34;125687.94;4925017;29;20107;-89
2022/09/13 05:39:04;;;;;;;5.13;2.85;;;18.20;99.90;;;-144.05;57.53;125687.94;4926383;29;20132;-88
2022/09/13 05:41:30;;;;;;;3.78;2.42;;;18.20;99.90;;;-144.05;57.56;125687.94;4926450;29;20032;-88
2022/09/13 05:43:57;;;;;;;5.45;2.67;;;18.20;99.90;;;-144.05;57.63;125687.94;4926640;29;20123;-88
2022/09/13 05:46:23;;;;;;;4.35;2.22;;;18.20;99.90;;;-144.05;57.61;125687.94;4927307;29;20088;-86
2022/09/13 06:04:35;;;;;;;5.30;2.20;;;18.30;99.90;;;-144.05;56.90;125687.94;5252685;23;20090;-91
2022/09/13 06:24:26;;;;;;;5.90;2.10;;;18.50;99.90;;;-144.05;56.67;125687.94;4827881;29;20075;-87
2022/09/13 09:39:39;;;;;;;6.95;3.75;;;25.50;99.90;;;-144.05;39.75;125687.94;4886902;29;20359;-89
2022/09/13 09:42:18;;;;;;;9.00;3.67;;;25.50;99.90;;;-144.05;40.40;125687.94;4887707;29;20029;-89
2022/09/13 09:45:03;;;;;;;6.85;3.70;;;25.30;99.90;;;-144.05;40.36;125687.94;4885627;29;20068;-89
2022/09/13 09:47:46;;;;;;;5.07;4.30;;;25.10;99.90;;;-144.05;40.91;125687.94;4885849;29;20128;-89
2022/09/13 09:50:24;;;;;;;7.95;4.18;;;25.20;99.90;;;-144.05;40.49;125687.94;4887762;29;20025;-88
2022/09/13 09:53:15;;;;;;;8.75;4.05;;;25.20;99.90;;;-144.05;40.27;125687.94;4886674;29;20036;-88
2022/09/13 09:56:18;;;;;;;7.78;3.95;;;25.20;99.90;;;-144.05;40.15;125687.94;4885149;29;20108;-88
2022/09/13 09:58:46;;;;;;;4.88;3.42;;;25.20;99.90;;;-144.05;40.67;125687.94;4902404;29;20069;-87
2022/09/13 10:01:29;;;;;;;8.07;4.05;;;25.50;99.90;;;-144.05;40.14;125687.94;4901771;29;20033;-90
2022/09/13 10:04:08;;;;;;;8.90;3.67;;;25.40;99.90;;;-144.05;40.70;125687.94;4902428;29;20040;-89
2022/09/13 10:06:39;;;;;;;7.28;4.53;;;25.50;99.90;;;-144.05;39.84;125687.94;4900662;29;20486;-88
2022/09/13 10:09:26;;;;;;;6.88;3.40;;;25.60;99.90;;;-144.05;40.45;125687.94;4884758;29;20039;-87
2022/09/13 10:12:01;;;;;;;5.60;3.28;;;25.60;99.90;;;-144.05;40.28;125687.94;4887216;29;20025;-88
2022/09/13 10:14:33;;;;;;;5.80;3.72;;;25.60;99.90;;;-144.05;39.82;125687.94;4886360;29;20081;-88
2022/09/13 10:17:24;;;;;;;7.47;4.70;;;25.70;99.90;;;-144.05;40.48;125687.94;4901436;29;20037;-89
2022/09/13 10:20:20;;;;;;;9.02;4.20;;;25.70;99.90;;;-144.05;40.62;125687.94;4899441;29;20092;-88
2022/09/13 10:23:17;;;;;;;7.15;3.60;;;25.70;99.90;;;-144.05;38.89;125687.94;4882174;29;20033;-87
2022/09/13 10:26:10;;;;;;;7.25;3.63;;;26.10;99.90;;;-144.05;38.54;125687.94;4882042;29;20044;-87
2022/09/13 10:29:05;;;;;;;5.68;3.90;;;26.50;99.90;;;-144.05;38.68;125687.94;4897546;29;20033;-90
2022/09/13 10:31:42;;;;;;;8.15;3.80;;;26.60;99.90;;;-144.05;38.44;125687.94;4882520;29;20068;-89
2022/09/13 10:34:21;;;;;;;6.10;3.10;;;26.80;99.90;;;-144.05;38.20;125687.94;4882346;29;20033;-88
2022/09/13 10:37:18;;;;;;;8.65;3.90;;;26.90;99.90;;;-144.05;37.54;125687.94;4897684;29;20048;-90
2022/09/13 10:40:25;;;;;;;4.95;3.10;;;26.80;99.90;;;-144.05;38.10;125687.94;4881771;29;20052;-90
2022/09/13 10:43:02;;;;;;;8.45;3.30;;;26.70;99.90;;;-144.05;38.59;125687.94;4881749;29;20039;-88
2022/09/13 10:45:31;;;;;;;6.47;3.53;;;26.90;99.90;;;-144.05;37.19;125687.94;4881975;29;20039;-90
2022/09/13 10:48:17;;;;;;;6.80;2.85;;;26.80;99.90;;;-144.05;38.96;125687.94;4884170;29;20025;-89
2022/09/13 10:51:20;;;;;;;8.63;3.42;;;26.90;99.90;;;-144.05;38.62;125687.94;4909384;29;20044;-86
2022/09/13 10:53:47;;;;;;;8.18;3.30;;;27.00;99.90;;;-144.05;37.84;125687.94;4891984;29;20038;-87
2022/09/13 10:56:28;;;;;;;7.65;3.67;;;27.10;99.90;;;-144.05;37.72;125687.94;4880902;29;20029;-85
2022/09/13 10:59:23;;;;;;;9.50;3.30;;;27.20;99.90;;;-144.05;37.61;125687.94;4884776;29;20029;-89
2022/09/13 11:02:21;;;;;;;5.10;3.40;;;27.20;99.90;;;-144.05;37.60;125687.94;4885926;29;20029;-87
2022/09/13 11:05:20;;;;;;;3.67;2.60;;;27.00;99.90;;;-144.05;38.50;125687.94;4901435;29;20037;-88
2022/09/13 11:08:19;;;;;;;7.05;2.97;;;27.10;99.90;;;-144.05;37.27;125687.94;4902221;29;20517;-88
2022/09/13 11:11:09;;;;;;;9.10;3.05;;;27.40;99.90;;;-144.05;37.59;125687.94;4901715;29;20040;-89
2022/09/13 11:14:26;;;;;;;5.38;3.10;;;27.60;99.90;;;-144.05;37.79;125687.94;4886141;29;20036;-86
2022/09/13 11:17:22;;;;;;;8.07;3.22;;;27.40;99.90;;;-144.05;38.36;125687.94;4885421;29;20110;-87
2022/09/13 11:20:19;;;;;;;;;;;27.20;99.90;;;-144.05;37.35;125687.94;4901747;29;20030;-90
2022/09/13 11:23:51;;;;;;;7.05;2.88;;;27.20;99.90;;;-144.05;38.48;125687.94;4885877;29;19919;-89
2022/09/13 11:27:11;;;;;;;6.85;3.00;;;27.10;99.90;;;-144.05;37.90;125687.94;4870028;29;20045;-90
2022/09/13 11:30:09;;;;;;;6.82;3.17;;;27.20;99.90;;;-144.05;38.08;125687.94;4904560;29;20068;-88
2022/09/13 11:33:04;;;;;;;8.80;3.33;;;27.10;99.90;;;-144.05;38.30;125687.94;4902652;29;20040;-89
2022/09/13 11:36:48;;;;;;;8.10;3.53;;;27.10;99.90;;;-144.05;38.52;125687.94;4902086;29;20051;-90
2022/09/13 11:39:45;;;;;;;6.18;3.13;;;27.30;99.90;;;-144.05;38.00;125687.94;4895428;29;20497;-87
2022/09/13 11:42:37;;;;;;;6.68;3.40;;;27.50;99.90;;;-144.05;37.64;125687.94;4896930;29;20058;-88
2022/09/13 11:45:27;;;;;;;8.32;3.53;;;27.60;99.90;;;-144.05;37.50;125687.94;4892819;29;20101;-87
2022/09/13 11:48:29;;;;;;;5.90;3.25;;;28.10;99.90;;;-144.05;37.18;125687.94;4889867;29;20466;-89
2022/09/13 11:51:31;;;;;;;5.88;3.40;;;28.00;99.90;;;-144.05;37.62;125687.94;4893969;29;20029;-87
2022/09/13 11:54:40;;;;;;;5.93;3.10;;;27.60;99.90;;;-144.05;38.76;125687.94;4889061;29;20150;-88
2022/09/13 11:57:18;;;;;;;7.45;3.40;;;27.10;99.90;;;-144.05;39.25;125687.94;4890384;29;20599;-89
2022/09/13 11:59:55;;;;;;;7.57;2.97;;;27.30;99.90;;;-144.05;38.34;125687.94;4888524;29;20059;-89
2022/09/13 12:02:52;;;;;;;11.07;3.72;;;27.70;99.90;;;-144.05;38.03;125687.94;4887851;29;20036;-87
2022/09/13 12:05:29;;;;;;;7.90;3.83;;;27.90;99.90;;;-144.05;37.06;125687.94;4904723;29;20037;-89
2022/09/13 12:08:17;;;;;;;8.30;3.60;;;28.10;99.90;;;-144.05;37.11;125687.94;4888747;29;20052;-90
2022/09/13 12:11:14;;;;;;;7.03;3.45;;;28.00;99.90;;;-144.05;37.11;125687.94;4888359;29;20246;-89
2022/09/13 12:13:49;;;;;;;6.95;3.00;;;27.90;99.90;;;-144.05;39.19;125687.94;4889849;29;20021;-89
2022/09/13 12:16:29;;;;;;;12.10;4.90;;;27.70;99.90;;;-144.05;38.60;125687.94;4887704;29;20040;-89
2022/09/13 12:19:07;;;;;;;8.27;4.30;;;27.50;99.90;;;-144.05;39.46;125687.94;4887762;29;20033;-92
2022/09/13 12:21:42;;;;;;;8.85;3.95;;;27.20;99.90;;;-144.05;40.16;125687.94;4888915;29;20045;-89
2022/09/13 12:24:32;;;;;;;9.32;4.75;;;26.80;99.90;;;-144.05;40.65;125687.94;4888293;29;20033;-89
2022/09/13 12:27:33;;;;;;;9.77;4.35;;;26.40;99.90;;;-144.05;41.97;125687.94;4889200;29;20490;-88
2022/09/13 12:30:27;;;;;;;7.80;4.30;;;26.10;99.90;;;-144.05;41.17;125687.94;4904833;29;20081;-90
2022/09/13 12:32:53;;;;;;;6.30;4.20;;;26.20;99.90;;;-144.05;41.30;125687.94;4888559;29;20080;-89
2022/09/13 12:36:11;;;;;;;11.93;6.05;;;26.40;99.90;;;-144.05;41.29;125687.94;4886997;29;20040;-88
2022/09/13 12:39:37;;;;;;;8.70;4.60;;;26.40;99.90;;;-144.05;41.73;125687.94;4876961;29;20049;-86
2022/09/13 12:42:46;;;;;;;9.18;4.80;;;26.50;99.90;;;-144.05;41.31;125687.94;4901457;29;20033;-87
2022/09/13 12:45:53;;;;;;;10.88;5.20;;;26.60;99.90;;;-144.05;41.28;125687.94;4906473;29;20517;-90
2022/09/13 12:48:39;;;;;;;9.63;5.18;;;26.60;99.90;;;-144.05;41.96;125687.94;4903049;29;20069;-89
2022/09/13 12:51:55;;;;;;;8.38;4.57;;;26.50;99.90;;;-144.05;40.77;125687.94;4903064;29;20024;-89
2022/09/13 12:55:00;;;;;;;8.32;5.03;;;26.80;99.90;;;-144.05;40.95;125687.94;4888029;29;20156;-87
2022/09/13 12:57:55;;;;;;;4.70;3.08;;;26.80;99.90;;;-144.05;41.69;125687.94;4887648;29;20049;-86
2022/09/13 13:00:33;;;;;;;7.45;3.60;;;27.00;99.90;;;-144.05;40.84;125687.94;4902695;29;20025;-89
2022/09/13 13:03:10;;;;;;;11.02;6.05;;;27.10;99.90;;;-144.05;40.51;125687.94;4886051;29;20032;-88
2022/09/13 13:05:45;;;;;;;9.00;4.88;;;27.10;99.90;;;-144.05;40.55;125687.94;4901440;29;20056;-88
2022/09/13 13:08:19;;;;;;;6.68;4.00;;;27.20;99.90;;;-144.05;40.88;125687.94;4886025;29;20037;-88
2022/09/13 13:11:11;;;;;;;6.38;3.80;;;27.20;99.90;;;-144.05;39.55;125687.94;4902597;29;20029;-88
2022/09/13 13:13:52;;;;;;;10.35;5.53;;;27.30;99.90;;;-144.05;39.62;125687.94;4886308;29;20044;-88
2022/09/13 13:16:26;;;;;;;6.65;4.25;;;27.20;99.90;;;-144.05;39.89;125687.94;4885206;29;20068;-92
2022/09/13 13:18:57;;;;;;;4.57;3.92;;;27.20;99.90;;;-144.05;40.72;125687.94;4900669;29;20037;-88
2022/09/13 13:21:39;;;;;;;13.00;5.80;;;27.10;99.90;;;-144.05;40.21;125687.94;4885498;29;20093;-88
2022/09/13 13:24:14;;;;;;;5.70;3.72;;;26.90;99.90;;;-144.05;40.74;125687.94;4885356;29;20055;-87
2022/09/13 13:26:54;;;;;;;8.52;5.43;;;27.10;99.90;;;-144.05;39.86;125687.94;4900746;29;20029;-88
2022/09/13 13:29:32;;;;;;;7.88;4.78;;;27.30;99.90;;;-144.05;39.39;125687.94;4885533;29;20052;-90
2022/09/13 13:32:02;;;;;;;8.20;4.88;;;27.30;99.90;;;-144.05;40.21;125687.94;4886804;29;20482;-89
2022/09/13 13:34:38;;;;;;;12.30;5.35;;;27.00;99.90;;;-144.05;41.03;125687.94;4901785;29;20068;-90
2022/09/13 13:37:51;;;;;;;;;;;26.70;99.90;;;-144.05;40.86;125687.94;4903350;29;20047;-90
2022/09/13 13:45:18;;;;;;;8.77;4.47;;;26.50;99.90;;;-144.05;40.90;125687.94;4890917;29;20037;-91
2022/09/13 13:49:28;;;;;;;8.48;4.22;;;26.60;99.90;;;-144.05;40.83;125687.94;4898857;29;20128;-87
2022/09/13 13:52:13;;;;;;;10.68;5.50;;;26.90;99.90;;;-144.05;41.90;125687.94;4891349;29;20045;-88
2022/09/13 13:56:12;;;;;;;7.47;4.72;;;26.90;99.90;;;-144.05;41.36;125687.94;4878195;29;20065;-89
2022/09/13 14:19:34;;;;;;;8.23;5.30;;;26.30;99.90;;;-144.05;43.26;125687.94;4902110;29;20049;-87
2022/09/13 15:43:52;;;;;;;7.47;3.60;;;24.60;99.90;;;-144.05;49.53;125687.94;4889629;29;20089;-87
2022/09/13 15:46:37;;;;;;;7.95;5.65;;;24.50;99.90;;;-144.05;49.47;125687.94;4908310;29;20029;-91
2022/09/13 15:49:17;;;;;;;7.22;4.97;;;24.40;99.90;;;-144.05;50.03;125687.94;4891252;29;20030;-89
2022/09/13 15:52:05;;;;;;;;;;;;;;;;;;;;;
2022/09/13 15:54:52;;;;;;;11.48;5.40;;;24.10;99.90;;;-144.05;50.89;125687.94;4877606;29;20068;-89
2022/09/13 15:58:08;;;;;;;7.50;4.85;;;23.80;99.90;;;-144.05;51.76;125687.94;4890778;29;20477;-88
2022/09/13 16:00:47;;;;;;;11.88;6.18;;;23.70;99.90;;;-144.05;52.14;125687.94;4879081;29;20022;-89
2022/09/13 16:03:18;;;;;;;11.45;5.78;;;23.60;99.90;;;-144.05;52.65;125687.94;4877574;29;20055;-91
2022/09/13 16:06:14;;;;;;;;;;;;;;;;;;;;;
2022/09/13 16:08:59;;;;;;;10.43;6.68;;;23.40;99.90;;;-144.05;53.18;125687.94;4879029;29;20081;-90
2022/09/13 16:11:34;;;;;;;8.35;5.57;;;23.30;99.90;;;-144.05;53.16;125687.94;4880432;29;20038;-90
2022/09/13 16:14:05;;;;;;;6.90;4.57;;;23.30;99.90;;;-144.05;53.25;125687.94;4879910;29;20070;-88
2022/09/13 20:16:23;;;;;;;3.92;1.65;;;20.00;99.90;;;-144.05;56.85;125687.94;4884829;29;20060;-87
2022/09/13 20:20:01;;;;;;;2.58;1.50;;;20.00;99.90;;;-144.05;56.25;125687.94;4846424;29;20042;-86
2022/09/13 21:35:06;;;;;;;3.05;0.90;;;19.10;99.90;;;-144.05;51.85;125687.94;4829393;29;20183;-87
2022/09/13 21:43:14;;;;;;;2.88;0.90;;;19.10;99.90;;;-144.05;51.22;125687.94;4788153;30;20039;-88
2022/09/13 22:15:13;;;;;;;;;;;18.70;99.90;;;-144.05;51.92;125687.94;4638874;30;20078;-81
2022/09/13 23:37:28;;;;;;;7.90;1.30;;;17.80;99.90;;;-144.05;56.69;125687.94;4865119;29;20132;-88
2022/09/13 23:39:57;;;;;;;4.60;0.90;;;17.70;99.90;;;-144.05;56.72;125687.94;4865280;29;20124;-90
2022/09/13 23:42:24;;;;;;;5.70;1.55;;;17.60;99.90;;;-144.05;57.05;125687.94;4865786;29;20045;-90
2022/09/13 23:44:56;;;;;;;6.43;1.30;;;17.60;99.90;;;-144.05;57.27;125687.94;4867255;29;20068;-91
2022/09/13 23:47:26;;;;;;;5.55;1.10;;;17.60;99.90;;;-144.05;57.90;125687.94;4865165;29;20026;-91
2022/09/13 23:49:57;;;;;;;8.32;1.48;;;17.60;99.90;;;-144.05;58.41;125687.94;4880829;29;20029;-90